sensor_id;sensor_type;location;lat;lon;timestamp;P1;durP1;ratioP1;P2;durP2;ratioP2
63693;SDS011;49839;51.798;10.954;2023-05-21T00:00:48;14.65;;;9.00;;
63693;SDS011;49839;51.798;10.954;2023-05-21T00:03:17;15.27;;;8.68;;
63693;SDS011;49839;51.798;10.954;2023-05-21T00:05:44;11.43;;;8.63;;
63693;SDS011;49839;51.798;10.954;2023-05-21T00:08:12;14.15;;;9.15;;
63693;SDS011;49839;51.798;10.954;2023-05-21T00:10:40;11.85;;;8.30;;
63693;SDS011;49839;51.798;10.954;2023-05-21T00:13:09;16.13;;;8.93;;
63693;SDS011;49839;51.798;10.954;2023-05-21T00:15:37;13.40;;;8.98;;
63693;SDS011;49839;51.798;10.954;2023-05-21T00:18:05;13.00;;;8.75;;
63693;SDS011;49839;51.798;10.954;2023-05-21T00:20:33;12.98;;;8.93;;
63693;SDS011;49839;51.798;10.954;2023-05-21T00:23:01;13.00;;;8.15;;
63693;SDS011;49839;51.798;10.954;2023-05-21T00:25:29;13.40;;;8.77;;
63693;SDS011;49839;51.798;10.954;2023-05-21T00:27:57;11.27;;;7.97;;
63693;SDS011;49839;51.798;10.954;2023-05-21T00:30:26;12.90;;;8.88;;
63693;SDS011;49839;51.798;10.954;2023-05-21T00:32:53;13.83;;;9.40;;
63693;SDS011;49839;51.798;10.954;2023-05-21T00:35:24;14.32;;;9.05;;
63693;SDS011;49839;51.798;10.954;2023-05-21T00:37:52;12.00;;;8.75;;
63693;SDS011;49839;51.798;10.954;2023-05-21T00:40:19;14.55;;;9.13;;
63693;SDS011;49839;51.798;10.954;2023-05-21T00:42:47;14.25;;;9.35;;
63693;SDS011;49839;51.798;10.954;2023-05-21T00:45:15;13.48;;;8.93;;
63693;SDS011;49839;51.798;10.954;2023-05-21T00:47:44;14.02;;;8.95;;
63693;SDS011;49839;51.798;10.954;2023-05-21T00:50:14;13.15;;;8.65;;
63693;SDS011;49839;51.798;10.954;2023-05-21T00:52:42;13.77;;;9.93;;
63693;SDS011;49839;51.798;10.954;2023-05-21T00:55:11;14.45;;;10.18;;
63693;SDS011;49839;51.798;10.954;2023-05-21T00:57:39;14.23;;;10.30;;
63693;SDS011;49839;51.798;10.954;2023-05-21T01:00:08;13.93;;;9.48;;
63693;SDS011;49839;51.798;10.954;2023-05-21T01:02:36;12.68;;;9.48;;
63693;SDS011;49839;51.798;10.954;2023-05-21T11:28:17;18.08;;;15.65;;
63693;SDS011;49839;51.798;10.954;2023-05-21T11:36:35;28.70;;;14.05;;
63693;SDS011;49839;51.798;10.954;2023-05-21T11:39:07;17.15;;;14.05;;
63693;SDS011;49839;51.798;10.954;2023-05-21T11:41:48;17.13;;;13.45;;
63693;SDS011;49839;51.798;10.954;2023-05-21T11:44:18;17.23;;;14.40;;
63693;SDS011;49839;51.798;10.954;2023-05-21T11:47:03;19.33;;;14.98;;
63693;SDS011;49839;51.798;10.954;2023-05-21T11:49:31;16.30;;;14.50;;
63693;SDS011;49839;51.798;10.954;2023-05-21T11:51:59;15.38;;;13.73;;
63693;SDS011;49839;51.798;10.954;2023-05-21T11:56:59;14.73;;;12.02;;
63693;SDS011;49839;51.798;10.954;2023-05-21T11:59:29;15.27;;;11.90;;
63693;SDS011;49839;51.798;10.954;2023-05-21T12:01:58;12.23;;;10.55;;
63693;SDS011;49839;51.798;10.954;2023-05-21T12:04:28;12.63;;;10.70;;
63693;SDS011;49839;51.798;10.954;2023-05-21T12:09:24;13.93;;;11.60;;
63693;SDS011;49839;51.798;10.954;2023-05-21T12:11:52;14.27;;;11.65;;
63693;SDS011;49839;51.798;10.954;2023-05-21T12:14:20;13.95;;;11.40;;
63693;SDS011;49839;51.798;10.954;2023-05-21T12:16:49;15.57;;;10.87;;
63693;SDS011;49839;51.798;10.954;2023-05-21T12:19:17;13.05;;;10.77;;
63693;SDS011;49839;51.798;10.954;2023-05-21T12:21:45;13.35;;;11.45;;
63693;SDS011;49839;51.798;10.954;2023-05-21T12:24:14;18.05;;;11.23;;
63693;SDS011;49839;51.798;10.954;2023-05-21T12:26:41;14.07;;;10.95;;
63693;SDS011;49839;51.798;10.954;2023-05-21T12:29:11;16.90;;;11.00;;
63693;SDS011;49839;51.798;10.954;2023-05-21T12:34:16;12.73;;;10.73;;
63693;SDS011;49839;51.798;10.954;2023-05-21T12:37:04;13.93;;;11.00;;
63693;SDS011;49839;51.798;10.954;2023-05-21T12:39:36;18.02;;;9.68;;
63693;SDS011;49839;51.798;10.954;2023-05-21T12:42:04;14.88;;;10.32;;
63693;SDS011;49839;51.798;10.954;2023-05-21T12:44:32;11.65;;;8.50;;
63693;SDS011;49839;51.798;10.954;2023-05-21T12:47:02;12.27;;;9.35;;
63693;SDS011;49839;51.798;10.954;2023-05-21T12:52:03;12.50;;;10.00;;
63693;SDS011;49839;51.798;10.954;2023-05-21T12:54:34;18.77;;;9.50;;
63693;SDS011;49839;51.798;10.954;2023-05-21T12:57:10;12.68;;;9.88;;
63693;SDS011;49839;51.798;10.954;2023-05-21T12:59:47;14.38;;;9.85;;
63693;SDS011;49839;51.798;10.954;2023-05-21T13:02:19;31.67;;;10.50;;
63693;SDS011;49839;51.798;10.954;2023-05-21T13:04:52;13.40;;;9.35;;
63693;SDS011;49839;51.798;10.954;2023-05-21T13:07:21;13.07;;;9.40;;
63693;SDS011;49839;51.798;10.954;2023-05-21T13:09:49;12.90;;;9.88;;
63693;SDS011;49839;51.798;10.954;2023-05-21T13:12:18;13.43;;;10.00;;
63693;SDS011;49839;51.798;10.954;2023-05-21T13:14:48;10.98;;;9.68;;
63693;SDS011;49839;51.798;10.954;2023-05-21T13:17:16;11.27;;;9.13;;
63693;SDS011;49839;51.798;10.954;2023-05-21T13:19:55;10.73;;;8.90;;
63693;SDS011;49839;51.798;10.954;2023-05-21T13:22:34;13.70;;;9.55;;
63693;SDS011;49839;51.798;10.954;2023-05-21T13:25:04;16.77;;;9.75;;
63693;SDS011;49839;51.798;10.954;2023-05-21T13:27:35;12.30;;;9.38;;
63693;SDS011;49839;51.798;10.954;2023-05-21T13:30:04;19.73;;;9.98;;
63693;SDS011;49839;51.798;10.954;2023-05-21T13:32:32;13.48;;;9.50;;
63693;SDS011;49839;51.798;10.954;2023-05-21T13:35:00;10.73;;;9.63;;
63693;SDS011;49839;51.798;10.954;2023-05-21T13:37:30;12.60;;;10.10;;
63693;SDS011;49839;51.798;10.954;2023-05-21T13:42:25;15.60;;;9.60;;
63693;SDS011;49839;51.798;10.954;2023-05-21T13:44:52;14.85;;;9.38;;
63693;SDS011;49839;51.798;10.954;2023-05-21T13:47:20;11.23;;;9.40;;
63693;SDS011;49839;51.798;10.954;2023-05-21T13:49:48;13.52;;;9.50;;
63693;SDS011;49839;51.798;10.954;2023-05-21T13:52:15;13.95;;;10.40;;
63693;SDS011;49839;51.798;10.954;2023-05-21T13:54:45;12.00;;;10.55;;
63693;SDS011;49839;51.798;10.954;2023-05-21T13:57:13;11.82;;;9.45;;
63693;SDS011;49839;51.798;10.954;2023-05-21T13:59:40;12.38;;;9.73;;
63693;SDS011;49839;51.798;10.954;2023-05-21T14:02:08;12.85;;;9.10;;
63693;SDS011;49839;51.798;10.954;2023-05-21T14:04:36;16.33;;;10.20;;
63693;SDS011;49839;51.798;10.954;2023-05-21T14:07:05;12.20;;;9.65;;
63693;SDS011;49839;51.798;10.954;2023-05-21T14:09:33;13.98;;;9.93;;
63693;SDS011;49839;51.798;10.954;2023-05-21T14:12:02;17.65;;;9.95;;
63693;SDS011;49839;51.798;10.954;2023-05-21T14:14:32;11.23;;;9.30;;
63693;SDS011;49839;51.798;10.954;2023-05-21T14:16:59;12.10;;;9.23;;
63693;SDS011;49839;51.798;10.954;2023-05-21T14:19:27;12.15;;;8.68;;
63693;SDS011;49839;51.798;10.954;2023-05-21T14:21:55;11.82;;;9.65;;
63693;SDS011;49839;51.798;10.954;2023-05-21T14:24:25;12.40;;;8.95;;
63693;SDS011;49839;51.798;10.954;2023-05-21T14:26:52;11.93;;;9.02;;
63693;SDS011;49839;51.798;10.954;2023-05-21T14:29:21;12.30;;;9.65;;
63693;SDS011;49839;51.798;10.954;2023-05-21T14:34:17;10.95;;;9.13;;
63693;SDS011;49839;51.798;10.954;2023-05-21T14:36:44;14.10;;;9.80;;
63693;SDS011;49839;51.798;10.954;2023-05-21T14:39:12;11.65;;;9.45;;
63693;SDS011;49839;51.798;10.954;2023-05-21T14:41:40;13.43;;;9.35;;
63693;SDS011;49839;51.798;10.954;2023-05-21T14:44:07;16.70;;;8.73;;
63693;SDS011;49839;51.798;10.954;2023-05-21T14:46:36;9.95;;;8.57;;
63693;SDS011;49839;51.798;10.954;2023-05-21T14:49:05;11.60;;;9.32;;
63693;SDS011;49839;51.798;10.954;2023-05-21T14:51:32;11.73;;;9.00;;
63693;SDS011;49839;51.798;10.954;2023-05-21T14:54:00;11.05;;;8.95;;
63693;SDS011;49839;51.798;10.954;2023-05-21T14:56:27;11.82;;;9.68;;
63693;SDS011;49839;51.798;10.954;2023-05-21T14:58:55;19.27;;;10.18;;
63693;SDS011;49839;51.798;10.954;2023-05-21T15:01:23;11.23;;;9.13;;
63693;SDS011;49839;51.798;10.954;2023-05-21T15:03:52;13.80;;;9.32;;
63693;SDS011;49839;51.798;10.954;2023-05-21T15:06:22;15.95;;;9.75;;
63693;SDS011;49839;51.798;10.954;2023-05-21T15:08:50;11.57;;;9.75;;
63693;SDS011;49839;51.798;10.954;2023-05-21T15:11:17;13.40;;;9.77;;
63693;SDS011;49839;51.798;10.954;2023-05-21T15:13:45;11.32;;;9.68;;
63693;SDS011;49839;51.798;10.954;2023-05-21T15:16:12;11.65;;;9.65;;
63693;SDS011;49839;51.798;10.954;2023-05-21T15:18:42;17.00;;;10.20;;
63693;SDS011;49839;51.798;10.954;2023-05-21T15:21:11;11.68;;;9.20;;
63693;SDS011;49839;51.798;10.954;2023-05-21T15:26:07;12.90;;;8.73;;
63693;SDS011;49839;51.798;10.954;2023-05-21T15:28:34;12.13;;;8.82;;
63693;SDS011;49839;51.798;10.954;2023-05-21T15:31:02;11.70;;;8.88;;
63693;SDS011;49839;51.798;10.954;2023-05-21T15:33:30;10.95;;;8.60;;
63693;SDS011;49839;51.798;10.954;2023-05-21T15:35:58;13.63;;;8.90;;
63693;SDS011;49839;51.798;10.954;2023-05-21T15:38:27;26.10;;;11.25;;
63693;SDS011;49839;51.798;10.954;2023-05-21T15:40:54;11.15;;;8.95;;
63693;SDS011;49839;51.798;10.954;2023-05-21T15:43:23;12.70;;;8.18;;
63693;SDS011;49839;51.798;10.954;2023-05-21T15:45:51;13.63;;;9.05;;
63693;SDS011;49839;51.798;10.954;2023-05-21T15:48:19;10.48;;;8.90;;
63693;SDS011;49839;51.798;10.954;2023-05-21T15:50:48;12.75;;;8.95;;
63693;SDS011;49839;51.798;10.954;2023-05-21T15:53:16;11.80;;;8.95;;
63693;SDS011;49839;51.798;10.954;2023-05-21T15:55:45;12.68;;;8.55;;
63693;SDS011;49839;51.798;10.954;2023-05-21T16:00:40;19.70;;;8.27;;
63693;SDS011;49839;51.798;10.954;2023-05-21T16:03:08;11.00;;;8.23;;
63693;SDS011;49839;51.798;10.954;2023-05-21T16:05:37;12.55;;;9.15;;
63693;SDS011;49839;51.798;10.954;2023-05-21T16:08:04;12.18;;;8.88;;
63693;SDS011;49839;51.798;10.954;2023-05-21T16:10:32;12.70;;;8.63;;
63693;SDS011;49839;51.798;10.954;2023-05-21T16:13:01;12.60;;;8.95;;
63693;SDS011;49839;51.798;10.954;2023-05-21T16:15:29;11.90;;;8.73;;
63693;SDS011;49839;51.798;10.954;2023-05-21T16:17:57;14.30;;;7.93;;
63693;SDS011;49839;51.798;10.954;2023-05-21T16:20:34;11.63;;;8.85;;
63693;SDS011;49839;51.798;10.954;2023-05-21T16:23:01;12.77;;;8.30;;
63693;SDS011;49839;51.798;10.954;2023-05-21T16:25:31;13.05;;;8.23;;
63693;SDS011;49839;51.798;10.954;2023-05-21T16:28:02;10.98;;;7.22;;
63693;SDS011;49839;51.798;10.954;2023-05-21T16:30:30;13.55;;;8.23;;
63693;SDS011;49839;51.798;10.954;2023-05-21T16:32:58;14.68;;;8.60;;
63693;SDS011;49839;51.798;10.954;2023-05-21T16:35:29;14.93;;;8.55;;
63693;SDS011;49839;51.798;10.954;2023-05-21T16:37:57;17.05;;;8.45;;
63693;SDS011;49839;51.798;10.954;2023-05-21T16:40:24;12.88;;;8.73;;
63693;SDS011;49839;51.798;10.954;2023-05-21T16:42:52;12.18;;;8.23;;
63693;SDS011;49839;51.798;10.954;2023-05-21T16:45:21;10.50;;;7.90;;
63693;SDS011;49839;51.798;10.954;2023-05-21T16:48:04;12.65;;;8.30;;
63693;SDS011;49839;51.798;10.954;2023-05-21T16:50:32;10.63;;;7.90;;
63693;SDS011;49839;51.798;10.954;2023-05-21T16:53:00;12.80;;;8.57;;
63693;SDS011;49839;51.798;10.954;2023-05-21T16:55:29;13.93;;;8.82;;
63693;SDS011;49839;51.798;10.954;2023-05-21T17:00:26;9.85;;;7.57;;
63693;SDS011;49839;51.798;10.954;2023-05-21T17:05:22;11.63;;;7.90;;
63693;SDS011;49839;51.798;10.954;2023-05-21T17:10:18;12.00;;;8.18;;
63693;SDS011;49839;51.798;10.954;2023-05-21T17:12:46;11.43;;;8.60;;
63693;SDS011;49839;51.798;10.954;2023-05-21T17:15:14;11.35;;;8.32;;
63693;SDS011;49839;51.798;10.954;2023-05-21T17:17:43;11.25;;;9.27;;
63693;SDS011;49839;51.798;10.954;2023-05-21T17:20:11;10.52;;;8.65;;
63693;SDS011;49839;51.798;10.954;2023-05-21T17:22:39;57.88;;;10.70;;
63693;SDS011;49839;51.798;10.954;2023-05-21T17:25:07;13.13;;;9.13;;
63693;SDS011;49839;51.798;10.954;2023-05-21T17:27:35;13.98;;;7.93;;
63693;SDS011;49839;51.798;10.954;2023-05-21T17:30:03;11.40;;;7.65;;
63693;SDS011;49839;51.798;10.954;2023-05-21T17:32:31;17.27;;;8.52;;
63693;SDS011;49839;51.798;10.954;2023-05-21T17:35:00;11.50;;;8.45;;
63693;SDS011;49839;51.798;10.954;2023-05-21T17:37:28;12.05;;;7.78;;
63693;SDS011;49839;51.798;10.954;2023-05-21T17:39:56;10.77;;;8.32;;
63693;SDS011;49839;51.798;10.954;2023-05-21T17:42:24;10.27;;;8.32;;
63693;SDS011;49839;51.798;10.954;2023-05-21T17:44:51;10.77;;;8.52;;
63693;SDS011;49839;51.798;10.954;2023-05-21T17:47:19;11.85;;;8.48;;
63693;SDS011;49839;51.798;10.954;2023-05-21T17:49:47;11.00;;;8.70;;
63693;SDS011;49839;51.798;10.954;2023-05-21T17:52:16;11.05;;;8.45;;
63693;SDS011;49839;51.798;10.954;2023-05-21T17:54:43;10.75;;;8.40;;
63693;SDS011;49839;51.798;10.954;2023-05-21T17:57:14;12.85;;;9.07;;
63693;SDS011;49839;51.798;10.954;2023-05-21T17:59:44;14.13;;;9.18;;
63693;SDS011;49839;51.798;10.954;2023-05-21T18:02:12;11.50;;;9.02;;
63693;SDS011;49839;51.798;10.954;2023-05-21T18:04:40;11.73;;;8.77;;
63693;SDS011;49839;51.798;10.954;2023-05-21T18:07:07;11.15;;;8.70;;
63693;SDS011;49839;51.798;10.954;2023-05-21T18:09:37;12.43;;;8.77;;
63693;SDS011;49839;51.798;10.954;2023-05-21T18:12:06;12.85;;;9.00;;
63693;SDS011;49839;51.798;10.954;2023-05-21T18:14:34;13.32;;;9.05;;
63693;SDS011;49839;51.798;10.954;2023-05-21T18:17:01;13.50;;;9.48;;
63693;SDS011;49839;51.798;10.954;2023-05-21T18:19:31;14.40;;;9.18;;
63693;SDS011;49839;51.798;10.954;2023-05-21T18:21:59;11.40;;;8.75;;
63693;SDS011;49839;51.798;10.954;2023-05-21T18:24:27;12.85;;;9.55;;
63693;SDS011;49839;51.798;10.954;2023-05-21T18:26:56;14.68;;;10.00;;
63693;SDS011;49839;51.798;10.954;2023-05-21T18:31:54;12.65;;;9.20;;
63693;SDS011;49839;51.798;10.954;2023-05-21T18:34:22;17.48;;;10.40;;
63693;SDS011;49839;51.798;10.954;2023-05-21T18:36:50;12.05;;;9.68;;
63693;SDS011;49839;51.798;10.954;2023-05-21T18:39:19;13.88;;;10.10;;
63693;SDS011;49839;51.798;10.954;2023-05-21T18:41:50;11.98;;;9.68;;
63693;SDS011;49839;51.798;10.954;2023-05-21T18:44:38;10.77;;;8.90;;
63693;SDS011;49839;51.798;10.954;2023-05-21T18:49:34;13.18;;;10.02;;
63693;SDS011;49839;51.798;10.954;2023-05-21T18:52:02;11.73;;;9.50;;
63693;SDS011;49839;51.798;10.954;2023-05-21T18:54:30;13.40;;;9.73;;
63693;SDS011;49839;51.798;10.954;2023-05-21T18:56:58;12.73;;;10.38;;
63693;SDS011;49839;51.798;10.954;2023-05-21T18:59:28;12.18;;;9.65;;
63693;SDS011;49839;51.798;10.954;2023-05-21T19:01:58;13.35;;;9.98;;
63693;SDS011;49839;51.798;10.954;2023-05-21T19:04:27;13.63;;;10.32;;
63693;SDS011;49839;51.798;10.954;2023-05-21T19:06:56;11.95;;;9.55;;
63693;SDS011;49839;51.798;10.954;2023-05-21T19:09:23;13.98;;;10.05;;
63693;SDS011;49839;51.798;10.954;2023-05-21T19:11:51;15.15;;;10.23;;
63693;SDS011;49839;51.798;10.954;2023-05-21T19:14:19;15.05;;;9.73;;
63693;SDS011;49839;51.798;10.954;2023-05-21T19:16:47;14.20;;;9.65;;
63693;SDS011;49839;51.798;10.954;2023-05-21T19:19:16;13.57;;;9.73;;
63693;SDS011;49839;51.798;10.954;2023-05-21T19:21:47;13.82;;;9.90;;
63693;SDS011;49839;51.798;10.954;2023-05-21T19:24:14;18.55;;;9.98;;
63693;SDS011;49839;51.798;10.954;2023-05-21T19:26:42;15.63;;;10.43;;
63693;SDS011;49839;51.798;10.954;2023-05-21T19:29:10;15.57;;;9.73;;
63693;SDS011;49839;51.798;10.954;2023-05-21T19:31:37;12.85;;;9.32;;
63693;SDS011;49839;51.798;10.954;2023-05-21T19:34:05;14.10;;;10.00;;
63693;SDS011;49839;51.798;10.954;2023-05-21T19:36:37;18.17;;;10.00;;
63693;SDS011;49839;51.798;10.954;2023-05-21T19:39:17;14.65;;;10.45;;
63693;SDS011;49839;51.798;10.954;2023-05-21T19:41:45;14.18;;;10.45;;
63693;SDS011;49839;51.798;10.954;2023-05-21T19:44:13;13.88;;;10.52;;
63693;SDS011;49839;51.798;10.954;2023-05-21T19:46:41;15.45;;;10.75;;
63693;SDS011;49839;51.798;10.954;2023-05-21T19:49:08;14.60;;;10.48;;
63693;SDS011;49839;51.798;10.954;2023-05-21T19:54:06;14.38;;;10.45;;
63693;SDS011;49839;51.798;10.954;2023-05-21T19:56:34;14.73;;;10.98;;
63693;SDS011;49839;51.798;10.954;2023-05-21T19:59:02;15.52;;;10.60;;
63693;SDS011;49839;51.798;10.954;2023-05-21T20:01:30;12.27;;;9.82;;
63693;SDS011;49839;51.798;10.954;2023-05-21T20:04:00;14.88;;;10.65;;
63693;SDS011;49839;51.798;10.954;2023-05-21T20:06:28;13.20;;;10.40;;
63693;SDS011;49839;51.798;10.954;2023-05-21T20:08:57;15.20;;;11.02;;
63693;SDS011;49839;51.798;10.954;2023-05-21T20:11:25;11.48;;;9.80;;
63693;SDS011;49839;51.798;10.954;2023-05-21T20:13:53;15.68;;;11.02;;
63693;SDS011;49839;51.798;10.954;2023-05-21T20:16:21;13.30;;;10.20;;
63693;SDS011;49839;51.798;10.954;2023-05-21T20:18:49;16.88;;;10.95;;
63693;SDS011;49839;51.798;10.954;2023-05-21T20:21:22;15.20;;;12.20;;
63693;SDS011;49839;51.798;10.954;2023-05-21T20:23:50;12.60;;;11.27;;
63693;SDS011;49839;51.798;10.954;2023-05-21T20:26:20;14.73;;;11.47;;
63693;SDS011;49839;51.798;10.954;2023-05-21T20:28:48;13.55;;;11.15;;
63693;SDS011;49839;51.798;10.954;2023-05-21T20:31:16;13.40;;;10.45;;
63693;SDS011;49839;51.798;10.954;2023-05-21T20:33:43;15.07;;;11.18;;
63693;SDS011;49839;51.798;10.954;2023-05-21T20:36:11;12.27;;;9.77;;
63693;SDS011;49839;51.798;10.954;2023-05-21T20:38:40;12.77;;;10.38;;
63693;SDS011;49839;51.798;10.954;2023-05-21T20:41:08;17.67;;;11.00;;
63693;SDS011;49839;51.798;10.954;2023-05-21T20:43:37;16.63;;;10.48;;
63693;SDS011;49839;51.798;10.954;2023-05-21T20:46:05;15.75;;;10.82;;
63693;SDS011;49839;51.798;10.954;2023-05-21T20:48:33;14.07;;;10.27;;
63693;SDS011;49839;51.798;10.954;2023-05-21T20:51:01;14.30;;;10.45;;
63693;SDS011;49839;51.798;10.954;2023-05-21T20:53:29;12.48;;;10.07;;
63693;SDS011;49839;51.798;10.954;2023-05-21T20:55:57;12.57;;;9.68;;
63693;SDS011;49839;51.798;10.954;2023-05-21T20:58:26;13.23;;;10.52;;
63693;SDS011;49839;51.798;10.954;2023-05-21T21:00:55;13.52;;;10.88;;
63693;SDS011;49839;51.798;10.954;2023-05-21T21:03:23;13.40;;;10.63;;
63693;SDS011;49839;51.798;10.954;2023-05-21T21:05:55;17.70;;;10.55;;
63693;SDS011;49839;51.798;10.954;2023-05-21T21:08:26;13.98;;;10.57;;
63693;SDS011;49839;51.798;10.954;2023-05-21T21:10:53;13.90;;;9.85;;
63693;SDS011;49839;51.798;10.954;2023-05-21T21:13:21;13.57;;;10.40;;
63693;SDS011;49839;51.798;10.954;2023-05-21T21:15:49;13.93;;;10.15;;
63693;SDS011;49839;51.798;10.954;2023-05-21T21:18:18;13.98;;;10.60;;
63693;SDS011;49839;51.798;10.954;2023-05-21T21:20:45;12.88;;;10.50;;
63693;SDS011;49839;51.798;10.954;2023-05-21T21:23:15;13.45;;;9.80;;
63693;SDS011;49839;51.798;10.954;2023-05-21T21:25:43;15.63;;;9.93;;
63693;SDS011;49839;51.798;10.954;2023-05-21T21:28:10;15.52;;;10.57;;
63693;SDS011;49839;51.798;10.954;2023-05-21T21:30:38;17.10;;;10.60;;
63693;SDS011;49839;51.798;10.954;2023-05-21T21:33:06;14.02;;;9.93;;
63693;SDS011;49839;51.798;10.954;2023-05-21T21:35:35;14.45;;;10.25;;
63693;SDS011;49839;51.798;10.954;2023-05-21T21:38:04;16.00;;;10.32;;
63693;SDS011;49839;51.798;10.954;2023-05-21T21:40:32;14.95;;;10.75;;
63693;SDS011;49839;51.798;10.954;2023-05-21T21:43:00;12.25;;;10.07;;
63693;SDS011;49839;51.798;10.954;2023-05-21T21:45:27;18.85;;;10.25;;
63693;SDS011;49839;51.798;10.954;2023-05-21T21:47:55;13.77;;;10.48;;
63693;SDS011;49839;51.798;10.954;2023-05-21T21:50:23;14.60;;;9.90;;
63693;SDS011;49839;51.798;10.954;2023-05-21T21:52:52;13.48;;;10.02;;
63693;SDS011;49839;51.798;10.954;2023-05-21T21:55:21;15.25;;;10.23;;
63693;SDS011;49839;51.798;10.954;2023-05-21T21:57:48;15.02;;;9.68;;
63693;SDS011;49839;51.798;10.954;2023-05-21T22:00:16;13.48;;;9.95;;
63693;SDS011;49839;51.798;10.954;2023-05-21T22:02:44;12.52;;;9.35;;
63693;SDS011;49839;51.798;10.954;2023-05-21T22:05:12;12.20;;;9.18;;
63693;SDS011;49839;51.798;10.954;2023-05-21T22:07:41;12.95;;;9.15;;
63693;SDS011;49839;51.798;10.954;2023-05-21T22:10:13;14.00;;;9.45;;
63693;SDS011;49839;51.798;10.954;2023-05-21T22:12:42;13.68;;;9.60;;
63693;SDS011;49839;51.798;10.954;2023-05-21T22:17:45;12.25;;;8.95;;
63693;SDS011;49839;51.798;10.954;2023-05-21T22:20:13;11.45;;;9.10;;
63693;SDS011;49839;51.798;10.954;2023-05-21T22:22:42;11.38;;;8.90;;
63693;SDS011;49839;51.798;10.954;2023-05-21T22:25:12;11.57;;;8.60;;
63693;SDS011;49839;51.798;10.954;2023-05-21T22:30:08;9.60;;;7.90;;
63693;SDS011;49839;51.798;10.954;2023-05-21T22:32:36;11.57;;;8.63;;
63693;SDS011;49839;51.798;10.954;2023-05-21T22:35:05;14.15;;;8.73;;
63693;SDS011;49839;51.798;10.954;2023-05-21T22:37:33;12.70;;;8.85;;
63693;SDS011;49839;51.798;10.954;2023-05-21T22:40:02;12.25;;;8.93;;
63693;SDS011;49839;51.798;10.954;2023-05-21T22:42:32;11.32;;;9.05;;
63693;SDS011;49839;51.798;10.954;2023-05-21T22:45:01;11.25;;;8.50;;
63693;SDS011;49839;51.798;10.954;2023-05-21T22:47:29;13.00;;;8.30;;
63693;SDS011;49839;51.798;10.954;2023-05-21T22:49:57;10.85;;;7.95;;
63693;SDS011;49839;51.798;10.954;2023-05-21T22:52:29;10.30;;;8.18;;
63693;SDS011;49839;51.798;10.954;2023-05-21T22:54:57;12.95;;;8.90;;
63693;SDS011;49839;51.798;10.954;2023-05-21T22:57:25;13.20;;;7.78;;
63693;SDS011;49839;51.798;10.954;2023-05-21T22:59:54;10.35;;;7.78;;
63693;SDS011;49839;51.798;10.954;2023-05-21T23:02:22;12.80;;;8.40;;
63693;SDS011;49839;51.798;10.954;2023-05-21T23:04:50;12.45;;;7.93;;
63693;SDS011;49839;51.798;10.954;2023-05-21T23:07:18;14.52;;;8.00;;
63693;SDS011;49839;51.798;10.954;2023-05-21T23:09:46;13.75;;;8.27;;
63693;SDS011;49839;51.798;10.954;2023-05-21T23:12:16;10.68;;;8.45;;
63693;SDS011;49839;51.798;10.954;2023-05-21T23:14:44;11.85;;;7.93;;
63693;SDS011;49839;51.798;10.954;2023-05-21T23:17:13;10.07;;;7.75;;
63693;SDS011;49839;51.798;10.954;2023-05-21T23:19:41;10.98;;;7.88;;
63693;SDS011;49839;51.798;10.954;2023-05-21T23:22:09;10.32;;;8.32;;
63693;SDS011;49839;51.798;10.954;2023-05-21T23:24:37;11.48;;;7.80;;
63693;SDS011;49839;51.798;10.954;2023-05-21T23:27:04;12.90;;;8.85;;
63693;SDS011;49839;51.798;10.954;2023-05-21T23:29:32;12.35;;;7.95;;
63693;SDS011;49839;51.798;10.954;2023-05-21T23:32:00;14.48;;;7.97;;
63693;SDS011;49839;51.798;10.954;2023-05-21T23:34:31;10.82;;;7.72;;
63693;SDS011;49839;51.798;10.954;2023-05-21T23:36:59;11.43;;;8.15;;
63693;SDS011;49839;51.798;10.954;2023-05-21T23:39:27;12.75;;;7.80;;
63693;SDS011;49839;51.798;10.954;2023-05-21T23:41:54;13.65;;;8.27;;
63693;SDS011;49839;51.798;10.954;2023-05-21T23:44:22;12.80;;;8.95;;
63693;SDS011;49839;51.798;10.954;2023-05-21T23:46:50;11.43;;;8.50;;
63693;SDS011;49839;51.798;10.954;2023-05-21T23:49:18;12.35;;;9.00;;
63693;SDS011;49839;51.798;10.954;2023-05-21T23:51:47;12.95;;;8.32;;
63693;SDS011;49839;51.798;10.954;2023-05-21T23:54:16;12.95;;;8.45;;
63693;SDS011;49839;51.798;10.954;2023-05-21T23:56:44;10.57;;;7.93;;
63693;SDS011;49839;51.798;10.954;2023-05-21T23:59:12;11.40;;;7.80;;
